createdAt,value
2023-04-03T00:01:06.509Z,95.80
2023-04-03T00:03:34.748Z,95.33
2023-04-03T00:06:02.903Z,95.88
2023-04-03T00:08:31.852Z,96.30
2023-04-03T00:11:00.800Z,96.33
2023-04-03T00:13:28.472Z,96.30
2023-04-03T00:15:56.264Z,96.86
2023-04-03T00:18:24.208Z,97.19
2023-04-03T00:20:51.947Z,97.15
2023-04-03T00:23:19.602Z,97.07
2023-04-03T00:25:47.387Z,97.51
2023-04-03T00:28:16.363Z,97.53
2023-04-03T00:30:44.040Z,97.35
2023-04-03T00:33:13.553Z,97.51
2023-04-03T00:35:41.598Z,98.08
2023-04-03T00:38:10.475Z,98.54
2023-04-03T00:40:40.762Z,98.55
2023-04-03T00:43:14.241Z,98.40
2023-04-03T00:45:45.316Z,98.72
2023-04-03T00:48:17.785Z,98.65
2023-04-03T00:50:47.140Z,98.80
2023-04-03T00:53:20.047Z,99.29
2023-04-03T00:55:49.796Z,98.96
2023-04-03T00:58:19.661Z,99.19
2023-04-03T01:00:52.690Z,99.62
2023-04-03T01:03:21.347Z,100.00
2023-04-03T01:05:49.024Z,99.50
2023-04-03T01:08:16.635Z,100.00
2023-04-03T01:10:44.637Z,100.00
2023-04-03T01:13:24.936Z,100.00
2023-04-03T01:15:54.398Z,100.00
2023-04-03T01:18:23.689Z,100.00
2023-04-03T01:21:30.746Z,100.00
2023-04-03T01:24:07.259Z,100.00
2023-04-03T01:26:36.637Z,100.00
2023-04-03T01:29:04.942Z,100.00
2023-04-03T01:31:45.654Z,100.00
2023-04-03T01:34:13.322Z,100.00
2023-04-03T01:36:41.019Z,100.00
2023-04-03T01:39:09.065Z,100.00
2023-04-03T01:41:36.773Z,100.00
2023-04-03T01:44:12.753Z,100.00
2023-04-03T01:46:40.369Z,100.00
2023-04-03T01:49:09.325Z,100.00
2023-04-03T01:51:36.979Z,100.00
2023-04-03T01:54:05.297Z,100.00
2023-04-03T01:56:33.114Z,100.00
2023-04-03T01:59:00.829Z,100.00
2023-04-03T02:01:28.601Z,100.00
2023-04-03T02:03:56.442Z,100.00
2023-04-03T02:06:26.256Z,100.00
2023-04-03T02:08:54.301Z,100.00
2023-04-03T02:11:22.200Z,100.00
2023-04-03T02:13:49.846Z,100.00
2023-04-03T02:16:17.455Z,100.00
2023-04-03T02:18:45.132Z,100.00
2023-04-03T02:21:12.991Z,100.00
2023-04-03T02:23:42.008Z,100.00
2023-04-03T02:26:12.017Z,100.00
2023-04-03T02:28:40.672Z,100.00
2023-04-03T02:31:09.108Z,100.00
2023-04-03T02:33:38.008Z,100.00
2023-04-03T02:36:09.546Z,100.00
2023-04-03T02:38:38.689Z,100.00
2023-04-03T02:41:10.450Z,100.00
2023-04-03T02:43:38.638Z,100.00
2023-04-03T02:46:07.669Z,100.00
2023-04-03T02:48:35.436Z,100.00
2023-04-03T02:51:03.098Z,100.00
2023-04-03T02:53:30.771Z,100.00
2023-04-03T02:55:59.582Z,100.00
2023-04-03T02:58:28.576Z,100.00
2023-04-03T03:00:58.714Z,100.00
2023-04-03T03:03:26.481Z,100.00
2023-04-03T03:06:03.122Z,100.00
2023-04-03T03:08:30.792Z,100.00
2023-04-03T03:10:58.435Z,100.00
2023-04-03T03:13:26.753Z,100.00
2023-04-03T03:15:55.793Z,100.00
2023-04-03T03:18:23.467Z,100.00
2023-04-03T03:20:53.419Z,100.00
2023-04-03T03:23:21.952Z,100.00
2023-04-03T03:25:49.691Z,100.00
2023-04-03T03:28:17.438Z,100.00
2023-04-03T03:30:45.304Z,100.00
2023-04-03T03:33:14.255Z,100.00
2023-04-03T03:35:42.823Z,100.00
2023-04-03T03:38:10.546Z,100.00
2023-04-03T03:40:38.695Z,100.00
2023-04-03T03:43:07.011Z,100.00
2023-04-03T03:45:34.970Z,100.00
2023-04-03T03:48:03.431Z,100.00
2023-04-03T03:50:33.096Z,100.00
2023-04-03T03:53:01.025Z,100.00
2023-04-03T03:55:28.920Z,100.00
2023-04-03T03:57:58.532Z,100.00
2023-04-03T04:00:26.839Z,100.00
2023-04-03T04:02:59.316Z,100.00
2023-04-03T04:05:27.979Z,100.00
2023-04-03T04:07:57.242Z,100.00
2023-04-03T04:12:09.301Z,100.00
2023-04-03T04:14:42.579Z,100.00
2023-04-03T04:17:15.268Z,100.00
2023-04-03T04:19:43.769Z,100.00
2023-04-03T04:22:11.800Z,100.00
2023-04-03T04:24:42.857Z,100.00
2023-04-03T04:27:16.660Z,100.00
2023-04-03T04:29:44.493Z,100.00
2023-04-03T04:32:12.145Z,100.00
2023-04-03T04:34:43.228Z,100.00
2023-04-03T04:37:11.637Z,100.00
2023-04-03T04:39:42.674Z,100.00
2023-04-03T04:42:16.008Z,100.00
2023-04-03T04:44:45.865Z,100.00
2023-04-03T04:47:15.620Z,100.00
2023-04-03T04:49:43.682Z,100.00
2023-04-03T04:52:12.076Z,100.00
2023-04-03T04:54:41.402Z,100.00
2023-04-03T04:57:09.174Z,100.00
2023-04-03T04:59:38.312Z,100.00
2023-04-03T05:02:08.265Z,100.00
2023-04-03T05:04:37.010Z,100.00
2023-04-03T05:07:10.231Z,100.00
2023-04-03T05:09:39.292Z,100.00
2023-04-03T05:12:07.177Z,100.00
2023-04-03T05:14:43.028Z,100.00
2023-04-03T05:17:12.633Z,100.00
2023-04-03T05:19:48.192Z,100.00
2023-04-03T05:22:16.568Z,100.00
2023-04-03T05:24:44.266Z,100.00
2023-04-03T05:27:12.034Z,100.00
2023-04-03T05:29:45.529Z,100.00
2023-04-03T05:32:18.031Z,100.00
2023-04-03T05:34:50.006Z,100.00
2023-04-03T05:37:20.149Z,100.00
2023-04-03T05:39:48.224Z,100.00
2023-04-03T05:42:17.057Z,100.00
2023-04-03T05:44:48.178Z,100.00
2023-04-03T05:47:15.858Z,100.00
2023-04-03T05:49:43.594Z,100.00
2023-04-03T05:52:22.305Z,100.00
2023-04-03T05:54:50.464Z,100.00
2023-04-03T05:57:24.923Z,100.00
2023-04-03T05:59:54.551Z,100.00
2023-04-03T06:02:25.513Z,100.00
2023-04-03T06:04:53.766Z,100.00
2023-04-03T06:07:23.617Z,100.00
2023-04-03T06:09:52.858Z,100.00
2023-04-03T06:12:24.629Z,100.00
2023-04-03T06:14:55.158Z,100.00
2023-04-03T06:17:23.780Z,100.00
2023-04-03T06:19:52.338Z,100.00
2023-04-03T06:22:20.859Z,100.00
2023-04-03T06:24:48.752Z,100.00
2023-04-03T06:27:16.631Z,100.00
2023-04-03T06:29:46.319Z,100.00
2023-04-03T06:32:16.343Z,100.00
2023-04-03T06:34:44.054Z,100.00
2023-04-03T06:37:12.883Z,100.00
2023-04-03T06:39:40.987Z,100.00
2023-04-03T06:42:08.590Z,100.00
2023-04-03T06:44:41.310Z,100.00
2023-04-03T06:47:11.291Z,100.00
2023-04-03T06:49:40.241Z,100.00
2023-04-03T06:52:08.012Z,100.00
2023-04-03T06:54:37.725Z,100.00
2023-04-03T06:57:05.853Z,100.00
2023-04-03T06:59:33.475Z,100.00
2023-04-03T07:02:01.129Z,100.00
2023-04-03T07:04:28.768Z,100.00
2023-04-03T07:06:57.837Z,100.00
2023-04-03T07:09:25.622Z,100.00
2023-04-03T07:11:53.291Z,100.00
2023-04-03T07:14:22.131Z,100.00
2023-04-03T07:16:49.735Z,100.00
2023-04-03T07:19:19.117Z,100.00
2023-04-03T07:21:49.301Z,100.00
2023-04-03T07:24:18.875Z,100.00
2023-04-03T07:26:47.272Z,100.00
2023-04-03T07:29:15.689Z,100.00
2023-04-03T07:31:43.507Z,100.00
2023-04-03T07:34:11.232Z,100.00
2023-04-03T07:36:39.789Z,100.00
2023-04-03T07:39:08.231Z,100.00
2023-04-03T07:41:37.931Z,100.00
2023-04-03T07:44:06.463Z,100.00
2023-04-03T07:46:34.319Z,100.00
2023-04-03T07:49:02.463Z,100.00
2023-04-03T07:51:30.857Z,100.00
2023-04-03T07:53:58.802Z,100.00
2023-04-03T07:56:27.080Z,100.00
2023-04-03T07:58:56.222Z,100.00
2023-04-03T08:01:24.511Z,100.00
2023-04-03T08:03:52.856Z,100.00
2023-04-03T08:06:29.286Z,100.00
2023-04-03T08:09:01.586Z,100.00
2023-04-03T08:11:33.177Z,100.00
2023-04-03T08:14:03.463Z,100.00
2023-04-03T08:16:31.106Z,100.00
2023-04-03T08:18:58.861Z,100.00
2023-04-03T08:21:27.088Z,99.55
2023-04-03T08:23:54.726Z,98.27
2023-04-03T08:26:23.273Z,97.18
2023-04-03T08:28:51.262Z,96.57
2023-04-03T08:31:21.586Z,94.06
2023-04-03T08:33:50.214Z,93.22
2023-04-03T08:36:21.287Z,92.14
2023-04-03T08:38:49.803Z,87.91
2023-04-03T08:41:31.440Z,88.04
2023-04-03T08:44:06.499Z,85.77
2023-04-03T08:46:50.172Z,84.21
2023-04-03T08:49:27.496Z,83.44
2023-04-03T08:51:56.926Z,82.39
2023-04-03T08:54:36.785Z,82.61
2023-04-03T08:57:08.341Z,81.12
2023-04-03T08:59:40.872Z,80.32
2023-04-03T09:02:27.754Z,80.34
2023-04-03T09:04:56.863Z,79.09
2023-04-03T09:07:35.420Z,78.12
2023-04-03T09:10:04.179Z,77.02
2023-04-03T09:12:40.302Z,78.17
2023-04-03T09:15:22.203Z,78.95
2023-04-03T09:18:04.877Z,78.57
2023-04-03T09:20:43.184Z,78.09
2023-04-03T09:23:24.889Z,77.99
2023-04-03T09:25:58.779Z,76.91
2023-04-03T09:28:27.844Z,74.93
2023-04-03T09:30:57.411Z,75.57
2023-04-03T09:33:32.786Z,74.44
2023-04-03T09:36:04.524Z,74.75
2023-04-03T09:38:35.213Z,75.63
2023-04-03T09:41:09.208Z,73.96
2023-04-03T09:43:41.199Z,73.39
2023-04-03T09:46:24.095Z,72.55
2023-04-03T09:49:08.283Z,73.50
2023-04-03T09:51:38.793Z,73.63
2023-04-03T09:54:35.578Z,73.37
2023-04-03T09:57:09.244Z,73.99
2023-04-03T09:59:37.395Z,73.08
2023-04-03T10:02:22.912Z,72.47
2023-04-03T10:05:06.215Z,72.62
2023-04-03T10:07:40.376Z,72.11
2023-04-03T10:10:21.047Z,72.91
2023-04-03T10:12:50.427Z,73.16
2023-04-03T10:15:21.126Z,71.86
2023-04-03T10:17:56.256Z,71.15
2023-04-03T10:20:35.208Z,70.86
2023-04-03T10:23:16.946Z,69.56
2023-04-03T10:25:56.797Z,69.93
2023-04-03T10:28:31.242Z,70.67
2023-04-03T10:31:07.518Z,71.11
2023-04-03T10:33:53.642Z,69.11
2023-04-03T10:36:33.965Z,66.77
2023-04-03T10:39:11.095Z,64.56
2023-04-03T10:41:55.789Z,63.30
2023-04-03T10:44:39.361Z,62.84
2023-04-03T10:47:19.464Z,61.78
2023-04-03T10:49:59.953Z,61.61
2023-04-03T10:52:39.340Z,60.42
2023-04-03T10:55:26.375Z,60.67
2023-04-03T10:57:56.452Z,60.86
2023-04-03T11:00:33.410Z,59.79
2023-04-03T11:03:03.283Z,58.83
2023-04-03T11:05:40.276Z,59.56
2023-04-03T11:08:18.371Z,60.74
2023-04-03T11:10:50.626Z,60.33
2023-04-03T11:13:24.053Z,58.61
2023-04-03T11:15:54.839Z,57.96
2023-04-03T11:18:28.912Z,57.73
2023-04-03T11:21:04.983Z,57.53
2023-04-03T11:23:48.660Z,55.70
2023-04-03T11:26:19.987Z,54.68
2023-04-03T11:28:48.015Z,53.88
2023-04-03T11:31:28.435Z,52.72
2023-04-03T11:34:05.179Z,52.47
2023-04-03T11:36:37.185Z,51.74
2023-04-03T11:39:22.954Z,52.53
2023-04-03T11:41:53.429Z,52.15
2023-04-03T11:44:35.454Z,51.92
2023-04-03T11:47:03.743Z,53.15
2023-04-03T11:50:00.643Z,52.10
2023-04-03T11:53:00.744Z,51.22
2023-04-03T11:55:53.767Z,52.06
2023-04-03T11:58:25.309Z,52.41
2023-04-03T12:01:09.685Z,52.01
2023-04-03T12:04:06.841Z,51.54
2023-04-03T12:07:05.567Z,51.24
2023-04-03T12:09:58.610Z,51.68
2023-04-03T12:12:32.250Z,50.58
2023-04-03T12:15:26.485Z,49.07
2023-04-03T12:17:57.421Z,48.15
2023-04-03T12:20:57.283Z,47.74
2023-04-03T12:23:32.092Z,47.87
2023-04-03T12:26:07.557Z,48.87
2023-04-03T12:28:41.620Z,48.86
2023-04-03T12:31:13.208Z,48.18
2023-04-03T12:34:04.475Z,48.00
2023-04-03T12:36:43.131Z,47.60
2023-04-03T12:39:38.519Z,47.45
2023-04-03T12:42:19.948Z,45.93
2023-04-03T12:45:00.039Z,46.15
2023-04-03T12:47:34.145Z,46.46
2023-04-03T12:50:04.135Z,45.26
2023-04-03T12:52:37.487Z,44.76
2023-04-03T12:55:18.711Z,45.01
2023-04-03T12:57:46.785Z,44.73
2023-04-03T13:00:28.503Z,45.36
2023-04-03T13:02:56.609Z,44.19
2023-04-03T13:05:25.960Z,42.68
2023-04-03T13:08:00.376Z,41.70
2023-04-03T13:10:28.168Z,42.65
2023-04-03T13:12:59.111Z,42.63
2023-04-03T13:15:30.492Z,43.12
2023-04-03T13:18:01.645Z,43.70
2023-04-03T13:20:31.360Z,43.33
2023-04-03T13:23:02.123Z,44.63
2023-04-03T13:25:33.527Z,44.33
2023-04-03T13:28:12.397Z,44.82
2023-04-03T13:30:58.013Z,43.74
2023-04-03T13:33:29.237Z,43.23
2023-04-03T13:35:58.895Z,43.13
2023-04-03T13:38:31.176Z,43.57
2023-04-03T13:41:03.510Z,44.34
2023-04-03T13:43:33.718Z,43.75
2023-04-03T13:46:07.555Z,45.15
2023-04-03T13:48:41.096Z,44.82
2023-04-03T13:51:20.708Z,44.40
2023-04-03T13:53:52.208Z,44.84
2023-04-03T13:56:24.844Z,44.58
2023-04-03T13:59:22.709Z,43.79
2023-04-03T14:01:54.995Z,44.58
2023-04-03T14:04:24.422Z,44.03
2023-04-03T14:06:52.525Z,44.57
2023-04-03T14:09:23.105Z,44.70
2023-04-03T14:11:53.375Z,44.71
2023-04-03T14:14:24.648Z,45.41
2023-04-03T14:16:57.158Z,45.02
2023-04-03T14:19:28.676Z,44.86
2023-04-03T14:21:59.096Z,43.98
2023-04-03T14:24:28.831Z,44.78
2023-04-03T14:27:00.168Z,45.02
2023-04-03T14:29:28.057Z,43.55
2023-04-03T14:32:11.565Z,44.56
2023-04-03T14:34:43.913Z,43.64
2023-04-03T14:37:14.313Z,44.13
2023-04-03T14:39:43.116Z,44.52
2023-04-03T14:42:14.354Z,45.30
2023-04-03T14:44:42.474Z,45.09
2023-04-03T14:47:30.578Z,45.18
2023-04-03T14:50:00.434Z,44.82
2023-04-03T14:52:34.242Z,46.14
2023-04-03T14:55:06.919Z,45.15
2023-04-03T14:57:35.664Z,46.85
2023-04-03T15:00:05.531Z,47.09
2023-04-03T15:02:41.573Z,46.89
2023-04-03T15:05:12.455Z,47.05
2023-04-03T15:07:42.688Z,46.61
2023-04-03T15:10:24.911Z,46.40
2023-04-03T15:12:56.699Z,45.58
2023-04-03T15:15:25.968Z,45.74
2023-04-03T15:18:03.081Z,45.51
2023-04-03T15:20:34.132Z,45.59
2023-04-03T15:23:02.617Z,46.12
2023-04-03T15:25:32.100Z,46.47
2023-04-03T15:28:01.978Z,46.61
2023-04-03T15:30:29.838Z,47.06
2023-04-03T15:32:59.147Z,47.48
2023-04-03T15:35:33.620Z,48.19
2023-04-03T15:38:03.036Z,48.18
2023-04-03T15:40:34.876Z,48.63
2023-04-03T15:43:03.328Z,48.58
2023-04-03T15:45:37.625Z,48.92
2023-04-03T15:48:18.872Z,50.00
2023-04-03T15:50:47.805Z,49.32
2023-04-03T15:53:15.952Z,50.44
2023-04-03T15:55:44.946Z,51.36
2023-04-03T15:58:14.869Z,50.49
2023-04-03T16:00:43.302Z,50.49
2023-04-03T16:03:23.520Z,51.07
2023-04-03T16:05:51.556Z,50.47
2023-04-03T16:08:21.678Z,51.74
2023-04-03T16:10:49.576Z,52.00
2023-04-03T16:13:20.613Z,51.63
2023-04-03T16:15:51.666Z,51.27
2023-04-03T16:18:27.780Z,51.57
2023-04-03T16:20:56.101Z,52.04
2023-04-03T16:23:25.409Z,51.92
2023-04-03T16:25:55.642Z,52.76
2023-04-03T16:28:25.705Z,53.06
2023-04-03T16:30:53.997Z,52.75
2023-04-03T16:33:28.454Z,52.61
2023-04-03T16:35:56.357Z,52.70
2023-04-03T16:38:28.830Z,52.23
2023-04-03T16:40:58.052Z,53.12
2023-04-03T16:43:27.111Z,53.14
2023-04-03T16:45:56.187Z,53.25
2023-04-03T16:48:25.341Z,54.08
2023-04-03T16:50:54.706Z,53.71
2023-04-03T16:53:26.325Z,53.71
2023-04-03T16:55:54.844Z,53.52
2023-04-03T16:58:29.053Z,54.08
2023-04-03T17:00:57.021Z,54.15
2023-04-03T17:03:30.507Z,54.78
2023-04-03T17:05:58.634Z,55.71
2023-04-03T17:08:27.549Z,54.61
2023-04-03T17:10:56.064Z,55.33
2023-04-03T17:13:24.221Z,56.42
2023-04-03T17:15:54.764Z,56.28
2023-04-03T17:18:23.825Z,56.17
2023-04-03T17:20:54.083Z,56.73
2023-04-03T17:23:26.158Z,56.74
2023-04-03T17:25:56.178Z,57.91
2023-04-03T17:28:28.786Z,57.85
2023-04-03T17:30:56.785Z,57.73
2023-04-03T17:33:24.751Z,57.47
2023-04-03T17:35:54.006Z,58.06
2023-04-03T17:38:21.648Z,58.32
2023-04-03T17:40:49.303Z,58.00
2023-04-03T17:43:17.036Z,58.18
2023-04-03T17:45:44.683Z,59.25
2023-04-03T17:48:12.329Z,58.48
2023-04-03T17:50:39.989Z,58.79
2023-04-03T17:53:08.914Z,59.56
2023-04-03T17:55:38.404Z,59.29
2023-04-03T17:58:06.514Z,59.88
2023-04-03T18:00:34.226Z,60.47
2023-04-03T18:03:01.872Z,60.68
2023-04-03T18:05:30.832Z,60.08
2023-04-03T18:07:59.364Z,60.93
2023-04-03T18:10:28.582Z,61.67
2023-04-03T18:12:56.857Z,60.54
2023-04-03T18:15:25.332Z,61.35
2023-04-03T18:17:56.571Z,61.32
2023-04-03T18:20:24.737Z,61.76
2023-04-03T18:22:52.896Z,61.61
2023-04-03T18:25:20.916Z,62.77
2023-04-03T18:27:50.181Z,62.57
2023-04-03T18:30:18.928Z,62.93
2023-04-03T18:32:46.546Z,63.38
2023-04-03T18:35:14.872Z,62.87
2023-04-03T18:37:42.497Z,63.47
2023-04-03T18:40:11.474Z,62.86
2023-04-03T18:42:41.659Z,63.22
2023-04-03T18:45:12.876Z,63.57
2023-04-03T18:47:40.894Z,64.26
2023-04-03T18:50:09.735Z,64.53
2023-04-03T18:52:37.319Z,64.71
2023-04-03T18:55:06.266Z,65.25
2023-04-03T18:57:33.854Z,64.97
2023-04-03T19:00:01.799Z,66.10
2023-04-03T19:02:31.111Z,66.69
2023-04-03T19:04:58.917Z,67.68
2023-04-03T19:07:26.562Z,67.22
2023-04-03T19:09:54.257Z,67.87
2023-04-03T19:12:21.879Z,68.28
2023-04-03T19:14:49.468Z,68.00
2023-04-03T19:17:17.130Z,68.02
2023-04-03T19:19:46.212Z,67.42
2023-04-03T19:22:13.889Z,67.11
2023-04-03T19:24:41.642Z,67.47
2023-04-03T19:27:09.213Z,67.26
2023-04-03T19:29:36.840Z,67.49
2023-04-03T19:32:04.425Z,67.08
2023-04-03T19:34:32.078Z,67.31
2023-04-03T19:37:02.319Z,67.46
2023-04-03T19:39:31.430Z,67.65
2023-04-03T19:41:59.219Z,67.21
2023-04-03T19:44:27.402Z,67.13
2023-04-03T19:46:55.150Z,67.41
2023-04-03T19:49:22.878Z,67.77
2023-04-03T19:51:50.845Z,68.05
2023-04-03T19:54:20.341Z,67.72
2023-04-03T19:56:48.102Z,67.23
2023-04-03T19:59:17.355Z,66.97
2023-04-03T20:01:46.285Z,67.97
2023-04-03T20:04:15.025Z,67.98
2023-04-03T20:06:42.686Z,67.66
2023-04-03T20:09:10.447Z,68.01
2023-04-03T20:11:40.359Z,68.13
2023-04-03T20:14:08.066Z,68.62
2023-04-03T20:16:36.180Z,68.00
2023-04-03T20:19:06.003Z,68.16
2023-04-03T20:21:35.150Z,66.94
2023-04-03T20:24:05.020Z,67.39
2023-04-03T20:26:33.656Z,66.61
2023-04-03T20:29:03.419Z,66.55
2023-04-03T20:31:32.816Z,67.40
2023-04-03T20:34:01.408Z,66.93
2023-04-03T20:36:29.653Z,67.29
2023-04-03T20:38:57.857Z,67.46
2023-04-03T20:41:25.808Z,68.36
2023-04-03T20:43:53.574Z,67.71
2023-04-03T20:46:25.416Z,67.43
2023-04-03T20:48:53.568Z,67.99
2023-04-03T20:51:22.181Z,67.33
2023-04-03T20:53:50.373Z,67.40
2023-04-03T20:56:18.256Z,67.92
2023-04-03T20:58:47.232Z,68.51
2023-04-03T21:01:17.592Z,69.33
2023-04-03T21:03:47.179Z,70.15
2023-04-03T21:06:52.398Z,70.44
2023-04-03T21:09:57.862Z,71.11
2023-04-03T21:13:03.254Z,71.70
2023-04-03T21:15:49.989Z,72.52
2023-04-03T21:18:52.921Z,72.64
2023-04-03T21:21:23.166Z,71.87
2023-04-03T21:23:52.037Z,72.37
2023-04-03T21:26:21.616Z,72.82
2023-04-03T21:28:51.534Z,73.23
2023-04-03T21:31:19.453Z,73.75
2023-04-03T21:33:48.471Z,73.93
2023-04-03T21:36:16.275Z,74.60
2023-04-03T21:38:47.641Z,75.08
2023-04-03T21:41:15.546Z,74.78
2023-04-03T21:43:43.216Z,75.10
2023-04-03T21:46:10.879Z,75.46
2023-04-03T21:48:39.265Z,75.61
2023-04-03T21:51:08.332Z,75.91
2023-04-03T21:53:36.107Z,76.92
2023-04-03T21:56:03.761Z,76.87
2023-04-03T21:58:32.047Z,77.21
2023-04-03T22:01:09.509Z,77.35
2023-04-03T22:03:37.490Z,77.66
2023-04-03T22:06:06.053Z,78.19
2023-04-03T22:08:35.111Z,77.99
2023-04-03T22:11:03.736Z,78.40
2023-04-03T22:13:31.793Z,78.61
2023-04-03T22:16:00.212Z,78.94
2023-04-03T22:18:27.809Z,78.93
2023-04-03T22:20:55.912Z,79.65
2023-04-03T22:23:23.869Z,79.38
2023-04-03T22:26:00.325Z,79.43
2023-04-03T22:28:28.657Z,79.64
2023-04-03T22:30:57.113Z,79.50
2023-04-03T22:33:24.939Z,79.21
2023-04-03T22:35:52.983Z,79.87
2023-04-03T22:38:20.605Z,80.10
2023-04-03T22:40:48.403Z,79.87
2023-04-03T22:43:17.595Z,80.09
2023-04-03T22:45:48.842Z,80.22
2023-04-03T22:48:16.740Z,80.38
2023-04-03T22:50:44.577Z,80.87
2023-04-03T22:53:12.294Z,80.92
2023-04-03T22:55:39.902Z,81.07
2023-04-03T22:58:08.153Z,80.80
2023-04-03T23:00:37.200Z,81.10
2023-04-03T23:03:04.976Z,81.49
2023-04-03T23:05:32.654Z,81.48
2023-04-03T23:08:00.670Z,81.17
2023-04-03T23:10:28.278Z,81.74
2023-04-03T23:12:56.015Z,81.96
2023-04-03T23:15:23.606Z,82.23
2023-04-03T23:17:52.621Z,82.54
2023-04-03T23:20:20.360Z,82.93
2023-04-03T23:22:48.057Z,83.17
2023-04-03T23:25:15.810Z,83.06
2023-04-03T23:27:43.417Z,83.37
2023-04-03T23:30:11.922Z,84.04
2023-04-03T23:32:39.566Z,83.67
2023-04-03T23:35:09.514Z,84.10
2023-04-03T23:37:37.119Z,84.58
2023-04-03T23:40:05.161Z,84.70
2023-04-03T23:42:32.798Z,85.00
2023-04-03T23:45:00.686Z,85.53
2023-04-03T23:47:28.458Z,86.18
2023-04-03T23:49:56.156Z,86.42
2023-04-03T23:52:25.144Z,86.87
2023-04-03T23:54:52.706Z,87.26
2023-04-03T23:57:20.303Z,87.76
2023-04-03T23:59:47.877Z,88.29
